Time;durP1;ratioP1;P1;durP2;ratioP2;P2;SDS_P1;SDS_P2;PMS_P1;PMS_P2;Temp;Humidity;BMP_temperature;BMP_pressure;BME280_temperature;BME280_humidity;BME280_pressure;Samples;Min_cycle;Max_cycle;Signal;HPM_P1;HPM_P2
2022/06/25 00:07:28;;;;;;;7.50;4.05;;;;;;;16.44;100.00;100056.06;21151049;28;20039;-70
2022/06/25 00:17:30;;;;;;;9.60;4.05;;;;;;;16.38;100.00;100053.66;21151190;28;20060;-69
2022/06/25 00:27:32;;;;;;;8.15;3.70;;;;;;;16.34;100.00;100068.81;21150609;28;20507;-70
2022/06/25 00:37:34;;;;;;;8.40;4.20;;;;;;;16.25;100.00;100081.59;21149719;28;20138;-70
2022/06/25 00:47:36;;;;;;;6.72;3.88;;;;;;;16.20;100.00;100080.94;21149923;28;20508;-70
2022/06/25 00:57:41;;;;;;;7.03;4.60;;;;;;;16.14;100.00;100084.69;21149022;28;20062;-69
2022/06/25 01:07:45;;;;;;;9.13;4.50;;;;;;;16.10;100.00;100080.47;21164433;28;20047;-70
2022/06/25 01:17:52;;;;;;;7.40;4.32;;;;;;;15.95;100.00;100089.03;21165197;28;20047;-70
2022/06/25 01:27:53;;;;;;;5.95;3.72;;;;;;;15.84;100.00;100089.50;21164031;28;20048;-70
2022/06/25 01:37:54;;;;;;;10.32;4.15;;;;;;;15.72;100.00;100085.63;21163415;28;20051;-70
2022/06/25 01:47:57;;;;;;;6.95;4.20;;;;;;;15.77;100.00;100090.69;21165989;28;20047;-69
2022/06/25 01:57:59;;;;;;;8.75;4.10;;;;;;;15.80;100.00;100091.41;21161903;28;20059;-70
2022/06/25 02:08:02;;;;;;;10.65;4.57;;;;;;;15.76;100.00;100089.84;21159789;28;20047;-70
2022/06/25 02:18:04;;;;;;;8.93;4.63;;;;;;;15.74;100.00;100093.47;21158099;28;20059;-70
2022/06/25 02:28:05;;;;;;;9.35;5.00;;;;;;;15.68;100.00;100104.28;21159632;28;20066;-70
2022/06/25 02:38:08;;;;;;;11.93;4.85;;;;;;;15.65;100.00;100107.88;21158001;28;20047;-70
2022/06/25 02:48:10;;;;;;;7.47;5.22;;;;;;;15.57;100.00;100107.31;21157050;28;20403;-70
2022/06/25 03:08:32;;;;;;;9.15;5.13;;;;;;;15.49;100.00;100118.19;21154629;28;20074;-70
2022/06/25 03:18:34;;;;;;;7.90;5.47;;;;;;;15.43;100.00;100123.72;21155180;28;20047;-70
2022/06/25 03:28:36;;;;;;;8.43;5.93;;;;;;;15.44;100.00;100124.56;21154275;28;20047;-69
2022/06/25 03:38:38;;;;;;;9.75;6.07;;;;;;;15.44;100.00;100122.78;21127310;28;20600;-70
2022/06/25 03:48:39;;;;;;;10.32;6.78;;;;;;;15.53;100.00;100135.63;21068270;28;20098;-70
2022/06/25 03:58:41;;;;;;;10.75;6.63;;;;;;;15.61;100.00;100141.41;21152159;28;20450;-70
2022/06/25 04:08:43;;;;;;;11.90;6.72;;;;;;;15.66;100.00;100133.34;21149269;28;20056;-71
2022/06/25 04:18:44;;;;;;;11.93;6.05;;;;;;;15.77;100.00;100143.50;21151198;28;20483;-69
2022/06/25 04:29:04;;;;;;;11.35;5.93;;;;;;;16.02;100.00;100161.81;21149789;28;20100;-69
2022/06/25 04:39:05;;;;;;;11.18;4.65;;;;;;;18.22;100.00;100158.69;21147826;28;20044;-70
2022/06/25 04:49:07;;;;;;;11.77;4.03;;;;;;;19.44;100.00;100160.94;21149584;28;20055;-70
2022/06/25 04:59:08;;;;;;;6.88;3.53;;;;;;;18.78;100.00;100171.69;21149537;28;20513;-70
2022/06/25 05:09:10;;;;;;;5.57;3.55;;;;;;;17.84;100.00;100167.63;21148016;28;20043;-70
2022/06/25 05:19:12;;;;;;;7.53;3.90;;;;;;;17.72;100.00;100162.88;21148986;28;20048;-70
2022/06/25 05:29:13;;;;;;;5.65;3.83;;;;;;;17.82;100.00;100174.81;21148961;28;20051;-70
2022/06/25 05:39:15;;;;;;;7.22;3.90;;;;;;;17.76;100.00;100167.13;21148218;28;20071;-71
2022/06/25 05:49:16;;;;;;;8.93;3.75;;;;;;;18.12;100.00;100164.47;21153825;28;20043;-71
2022/06/25 05:59:18;;;;;;;7.05;2.92;;;;;;;18.27;100.00;100175.22;21162318;28;20588;-71
2022/06/25 06:09:19;;;;;;;9.93;2.65;;;;;;;18.58;100.00;100172.69;21160422;28;20074;-70
2022/06/25 06:19:21;;;;;;;6.28;2.63;;;;;;;18.76;100.00;100197.41;21160565;28;20069;-71
2022/06/25 06:29:22;;;;;;;4.57;2.08;;;;;;;18.76;100.00;100199.22;21160266;28;20101;-70
2022/06/25 06:39:23;;;;;;;4.70;1.95;;;;;;;19.19;100.00;100214.53;21158204;28;20585;-70
2022/06/25 06:49:25;;;;;;;4.60;1.90;;;;;;;19.31;100.00;100206.88;21157760;28;20052;-70
2022/06/25 06:59:27;;;;;;;4.68;1.88;;;;;;;19.49;100.00;100203.16;21085772;28;20051;-70
2022/06/25 07:09:28;;;;;;;6.03;1.70;;;;;;;19.96;100.00;100194.34;21057044;28;20463;-70
2022/06/25 07:19:30;;;;;;;3.33;1.52;;;;;;;20.17;100.00;100184.25;21057016;28;20070;-68
2022/06/25 07:29:31;;;;;;;2.53;1.48;;;;;;;20.19;100.00;100185.88;21058697;28;20063;-68
2022/06/25 07:39:33;;;;;;;3.83;1.60;;;;;;;20.56;100.00;100178.41;21058666;28;20109;-69
2022/06/25 07:51:56;;;;;;;3.17;1.40;;;;;;;20.86;100.00;100169.50;21060976;28;20055;-68
2022/06/25 07:59:55;;;;;;;2.25;1.17;;;;;;;21.07;100.00;100159.31;21060707;28;20048;-70
2022/06/25 08:09:57;;;;;;;3.55;1.65;;;;;;;21.18;100.00;100152.38;21057069;28;20125;-71
2022/06/25 08:19:59;;;;;;;4.57;1.70;;;;;;;21.55;100.00;100157.16;21058021;28;20055;-65
2022/06/25 08:30:01;;;;;;;4.00;1.27;;;;;;;21.70;100.00;100151.69;21058522;28;20052;-66
2022/06/25 08:40:02;;;;;;;2.97;1.50;;;;;;;22.63;98.51;100149.00;21057651;28;20143;-66
2022/06/25 08:50:06;;;;;;;2.38;1.20;;;;;;;23.14;87.61;100140.94;21058071;28;20442;-66
2022/06/25 09:00:08;;;;;;;1.98;1.10;;;;;;;23.60;84.22;100143.78;21057325;28;20056;-66
2022/06/25 09:10:22;;;;;;;3.80;1.10;;;;;;;24.21;79.18;100133.84;21057202;28;20485;-66
2022/06/25 09:20:27;;;;;;;1.95;0.90;;;;;;;23.79;81.77;100121.91;21058799;28;20044;-67
2022/06/25 09:30:31;;;;;;;2.67;1.20;;;;;;;24.51;80.67;100127.97;21071828;28;20839;-66
2022/06/25 09:40:33;;;;;;;2.43;1.13;;;;;;;24.50;75.33;100122.75;21071420;28;20668;-66
2022/06/25 09:50:35;;;;;;;3.07;1.00;;;;;;;24.32;72.34;100099.06;21069726;28;20052;-66
2022/06/25 10:00:37;;;;;;;2.08;1.20;;;;;;;24.63;65.13;100106.59;21069172;28;20044;-66
2022/06/25 10:10:42;;;;;;;3.53;1.05;;;;;;;24.52;63.74;100099.38;21068675;28;20542;-66
2022/06/25 10:20:44;;;;;;;2.60;1.20;;;;;;;25.51;61.18;100090.50;21068225;28;20524;-68
2022/06/25 10:30:51;;;;;;;3.90;1.10;;;;;;;24.52;61.32;100083.31;21066502;28;20500;-69
2022/06/25 10:51:43;;;;;;;1.40;0.73;;;;;;;26.37;55.65;100048.38;21065457;28;20110;-70
2022/06/25 11:01:56;;;;;;;3.42;1.17;;;;;;;26.12;60.65;100033.56;21064278;28;20048;-69
2022/06/25 11:11:59;;;;;;;2.03;0.90;;;;;;;26.17;54.31;100010.69;21063735;28;20047;-69
2022/06/25 11:22:02;;;;;;;4.77;1.30;;;;;;;26.41;59.40;100018.44;21063496;28;20048;-72
2022/06/25 11:32:04;;;;;;;2.70;1.43;;;;;;;26.27;61.59;100016.97;21061015;28;20052;-71
2022/06/25 11:42:09;;;;;;;3.20;1.20;;;;;;;26.38;55.81;100012.47;21062369;28;20477;-70
2022/06/25 11:52:12;;;;;;;3.60;1.45;;;;;;;26.20;59.48;100015.78;21060094;28;20059;-70
2022/06/25 12:02:14;;;;;;;2.80;1.30;;;;;;;26.31;61.04;100013.03;21059793;28;20447;-70
2022/06/25 12:12:17;;;;;;;4.35;1.23;;;;;;;26.17;55.64;99989.22;21059785;28;20105;-69
2022/06/25 12:22:26;;;;;;;2.80;1.40;;;;;;;26.46;60.94;99984.00;21058696;28;20050;-72
2022/06/25 12:32:41;;;;;;;4.25;1.10;;;;;;;26.64;55.55;99969.91;21057426;28;20052;-70
2022/06/25 12:42:53;;;;;;;3.65;1.50;;;;;;;27.02;56.46;99963.75;21057498;28;20048;-69
2022/06/25 12:52:56;;;;;;;2.35;1.20;;;;;;;27.10;56.23;99956.72;21057636;28;20055;-71
2022/06/25 13:02:57;;;;;;;2.97;1.40;;;;;;;26.73;52.04;99943.06;21072450;28;20500;-70
2022/06/25 13:12:59;;;;;;;3.63;1.30;;;;;;;27.07;56.69;99938.19;21074099;28;20155;-70
2022/06/25 13:23:01;;;;;;;6.88;1.65;;;;;;;27.19;51.33;99944.28;21073824;28;20040;-67
2022/06/25 13:33:02;;;;;;;1.83;1.20;;;;;;;27.16;55.99;99939.19;21072350;28;20547;-67
2022/06/25 13:43:05;;;;;;;5.13;1.73;;;;;;;27.34;51.87;99926.72;21070450;28;20048;-66
2022/06/25 13:53:06;;;;;;;4.80;1.60;;;;;;;27.04;53.64;99913.41;21070430;28;20052;-67
2022/06/25 14:03:08;;;;;;;4.20;1.23;;;;;;;27.28;51.87;99913.84;21068401;28;20578;-66
2022/06/25 14:13:09;;;;;;;3.22;1.40;;;;;;;27.39;52.53;99910.16;21065421;28;20048;-66
2022/06/25 14:23:11;;;;;;;3.80;1.48;;;;;;;27.35;45.84;99896.16;21068188;28;20052;-66
2022/06/25 14:33:12;;;;;;;2.97;1.30;;;;;;;27.79;47.69;99884.91;21066695;28;20051;-66
2022/06/25 14:43:14;;;;;;;3.55;1.60;;;;;;;28.25;47.18;99881.28;21065139;28;20048;-66
2022/06/25 14:53:15;;;;;;;3.33;1.63;;;;;;;28.01;47.24;99886.38;21065118;28;20496;-67
2022/06/25 15:03:17;;;;;;;2.28;1.25;;;;;;;27.99;48.50;99866.84;21063995;28;20048;-67
2022/06/25 15:13:18;;;;;;;3.03;1.50;;;;;;;28.28;45.51;99846.00;21062873;28;20484;-65
2022/06/25 15:23:19;;;;;;;2.88;1.45;;;;;;;28.21;46.86;99842.19;21062528;28;20048;-70
2022/06/25 15:33:21;;;;;;;4.70;1.50;;;;;;;28.33;46.02;99830.22;21062076;28;20419;-73
2022/06/25 15:43:22;;;;;;;5.53;1.83;;;;;;;28.49;45.18;99826.88;21061004;28;20067;-66
2022/06/25 15:53:24;;;;;;;4.65;1.75;;;;;;;28.49;44.64;99817.94;21061097;28;20687;-67
2022/06/25 16:03:32;;;;;;;3.90;1.95;;;;;;;28.54;46.52;99810.25;21059697;28;20137;-66
2022/06/25 16:13:34;;;;;;;2.83;1.50;;;;;;;28.50;43.76;99795.41;21058271;28;20064;-67
2022/06/25 16:23:35;;;;;;;3.83;1.52;;;;;;;28.65;45.08;99791.19;21058720;28;20102;-66
2022/06/25 16:33:37;;;;;;;4.55;1.60;;;;;;;28.69;43.76;99779.06;21056826;28;20491;-66
2022/06/25 16:53:59;;;;;;;4.57;1.58;;;;;;;28.40;43.09;99773.94;21057091;28;20484;-67
2022/06/25 17:04:02;;;;;;;5.35;1.80;;;;;;;28.29;43.94;99776.81;21056526;28;20044;-67
2022/06/25 17:14:04;;;;;;;23.55;20.70;;;;;;;27.96;48.25;99783.72;21056506;28;20469;-67
2022/06/25 17:24:08;;;;;;;15.60;12.73;;;;;;;27.60;47.47;99764.75;21056616;28;20094;-67
2022/06/25 17:34:09;;;;;;;4.00;1.80;;;;;;;27.93;47.37;99766.03;21054973;28;20047;-67
2022/06/25 17:44:11;;;;;;;4.80;1.52;;;;;;;27.75;46.94;99768.69;21061539;28;20428;-67
2022/06/25 17:54:12;;;;;;;5.78;1.35;;;;;;;27.00;50.27;99757.00;21070476;28;20055;-66
2022/06/25 18:04:14;;;;;;;2.83;1.17;;;;;;;26.76;52.62;99760.16;21069185;28;20047;-66
2022/06/25 18:14:16;;;;;;;3.10;1.58;;;;;;;27.27;50.40;99748.19;21068832;28;20052;-66
2022/06/25 18:24:17;;;;;;;3.88;1.10;;;;;;;26.91;51.36;99755.19;21068496;28;20048;-66
2022/06/25 18:34:19;;;;;;;3.25;1.40;;;;;;;26.80;52.97;99761.56;21066876;28;20051;-66
2022/06/25 18:44:44;;;;;;;3.58;1.42;;;;;;;26.38;52.26;99766.34;21067588;28;20048;-66
2022/06/25 18:54:46;;;;;;;4.82;1.80;;;;;;;25.86;57.85;99770.22;21065018;28;20066;-66
2022/06/25 19:04:48;;;;;;;3.65;1.90;;;;;;;25.48;60.48;99777.13;21065158;28;20154;-66
2022/06/25 19:14:49;;;;;;;4.32;2.15;;;;;;;25.12;61.77;99782.03;21064266;28;20044;-66
2022/06/25 19:24:51;;;;;;;4.47;1.80;;;;;;;24.67;72.80;99784.91;21063377;28;20534;-66
2022/06/25 19:34:53;;;;;;;6.20;2.28;;;;;;;24.15;75.85;99797.28;21061739;28;20051;-66
2022/06/25 19:44:55;;;;;;;3.15;1.65;;;;;;;23.82;78.96;99805.34;21061658;28;20066;-66
2022/06/25 19:54:56;;;;;;;3.28;1.42;;;;;;;23.37;81.39;99821.34;21060005;28;20101;-66
2022/06/25 20:04:58;;;;;;;2.72;1.63;;;;;;;23.07;85.34;99822.75;21058713;28;20052;-66
2022/06/25 20:14:59;;;;;;;6.32;1.95;;;;;;;22.88;84.63;99833.09;21058114;28;20048;-66
2022/06/25 20:25:01;;;;;;;4.18;1.70;;;;;;;22.79;85.91;99840.81;21058720;28;20488;-66
2022/06/25 20:35:03;;;;;;;6.68;2.00;;;;;;;22.55;88.99;99845.31;21057887;28;20106;-66
2022/06/25 20:45:05;;;;;;;5.18;2.03;;;;;;;22.05;90.80;99836.53;21057131;28;20455;-66
2022/06/25 20:55:08;;;;;;;3.33;1.80;;;;;;;21.83;91.83;99847.03;21056616;28;20050;-66
2022/06/25 21:15:31;;;;;;;5.78;2.15;;;;;;;21.43;95.77;99858.69;21057724;28;20044;-67
2022/06/25 21:25:34;;;;;;;5.90;2.40;;;;;;;21.27;97.28;99866.84;21074100;28;20455;-67
2022/06/25 21:35:36;;;;;;;4.60;2.15;;;;;;;21.19;98.94;99881.63;21070745;28;20098;-68
2022/06/25 21:45:37;;;;;;;3.65;2.03;;;;;;;20.90;99.83;99891.56;21072383;28;20097;-68
2022/06/25 21:55:39;;;;;;;5.40;2.50;;;;;;;20.62;100.00;99888.06;21070563;28;20484;-68
2022/06/25 22:05:40;;;;;;;4.32;2.35;;;;;;;20.22;100.00;99903.91;21071526;28;20048;-68
2022/06/25 22:15:42;;;;;;;5.50;2.65;;;;;;;19.98;100.00;99895.69;21077216;28;20052;-68
2022/06/25 22:25:45;;;;;;;7.18;3.10;;;;;;;19.98;100.00;99908.13;21076802;28;20056;-68
2022/06/25 22:35:47;;;;;;;6.20;3.10;;;;;;;20.02;100.00;99906.97;21074348;28;20051;-68
2022/06/25 22:45:49;;;;;;;6.13;2.80;;;;;;;20.08;100.00;99924.34;21071665;28;20490;-68
2022/06/25 22:55:50;;;;;;;6.47;2.60;;;;;;;20.31;99.42;99965.41;21073990;28;20047;-69
2022/06/25 23:05:52;;;;;;;3.75;2.20;;;;;;;20.68;96.36;99959.50;21073032;28;20044;-67
2022/06/25 23:15:54;;;;;;;3.63;1.85;;;;;;;20.88;95.07;99960.00;21072791;28;20044;-68
2022/06/25 23:25:55;;;;;;;7.35;2.40;;;;;;;20.63;97.04;99958.94;21072113;28;20151;-68
2022/06/25 23:35:57;;;;;;;4.20;2.03;;;;;;;20.59;97.79;99984.03;21070470;28;20048;-68
2022/06/25 23:45:58;;;;;;;6.88;2.10;;;;;;;20.58;98.47;99998.28;21070584;28;20052;-68
2022/06/25 23:56:00;;;;;;;5.28;2.22;;;;;;;20.57;100.00;100078.19;21069705;28;20051;-67
